createdAt,value
2023-04-06T00:00:22.465Z,34.43
2023-04-06T00:02:50.904Z,27.20
2023-04-06T00:05:21.243Z,30.43
2023-04-06T00:07:49.696Z,26.37
2023-04-06T00:10:18.447Z,25.73
2023-04-06T00:12:46.976Z,27.57
2023-04-06T00:15:15.870Z,29.07
2023-04-06T00:17:44.016Z,27.63
2023-04-06T00:20:12.956Z,27.23
2023-04-06T00:22:42.801Z,24.83
2023-04-06T00:25:12.220Z,27.50
2023-04-06T00:27:40.943Z,24.80
2023-04-06T00:30:10.573Z,27.80
2023-04-06T00:32:38.992Z,28.63
2023-04-06T00:35:08.447Z,24.00
2023-04-06T00:37:36.851Z,28.57
2023-04-06T00:40:07.851Z,27.93
2023-04-06T00:42:36.051Z,26.43
2023-04-06T00:45:04.731Z,30.40
2023-04-06T00:47:33.148Z,26.63
2023-04-06T00:50:01.391Z,32.63
2023-04-06T00:52:30.169Z,29.97
2023-04-06T00:54:58.513Z,32.97
2023-04-06T00:57:28.149Z,30.60
2023-04-06T00:59:59.252Z,28.60
2023-04-06T01:02:27.797Z,27.90
2023-04-06T01:04:56.310Z,29.87
2023-04-06T01:07:25.692Z,31.90
2023-04-06T01:09:55.768Z,31.07
2023-04-06T01:12:23.981Z,28.40
2023-04-06T01:14:53.568Z,33.83
2023-04-06T01:17:22.096Z,28.27
2023-04-06T01:19:52.304Z,33.03
2023-04-06T01:22:22.224Z,30.90
2023-04-06T01:24:50.374Z,25.47
2023-04-06T01:27:18.613Z,31.07
2023-04-06T01:29:46.917Z,30.40
2023-04-06T01:32:15.141Z,29.10
2023-04-06T01:34:43.381Z,31.33
2023-04-06T01:37:11.944Z,25.43
2023-04-06T01:39:41.473Z,31.10
2023-04-06T01:42:09.683Z,30.07
2023-04-06T01:44:38.244Z,27.97
2023-04-06T01:47:06.545Z,28.67
2023-04-06T01:49:34.940Z,29.37
2023-04-06T01:52:03.462Z,28.73
2023-04-06T01:54:31.644Z,29.30
2023-04-06T01:57:01.674Z,30.33
2023-04-06T01:59:30.345Z,28.90
2023-04-06T02:01:58.546Z,27.80
2023-04-06T02:04:27.118Z,27.17
2023-04-06T02:06:55.685Z,29.00
2023-04-06T02:09:23.902Z,29.70
2023-04-06T02:11:52.151Z,28.57
2023-04-06T02:14:21.892Z,31.17
2023-04-06T02:16:50.456Z,30.13
2023-04-06T02:19:18.934Z,29.77
2023-04-06T02:21:47.531Z,29.23
2023-04-06T02:24:15.681Z,34.20
2023-04-06T02:26:43.832Z,31.30
2023-04-06T02:29:12.205Z,27.93
2023-04-06T02:31:42.107Z,30.57
2023-04-06T02:34:12.978Z,27.67
2023-04-06T02:36:41.508Z,37.90
2023-04-06T02:39:09.896Z,29.27
2023-04-06T02:41:38.367Z,29.03
2023-04-06T02:44:08.182Z,31.87
2023-04-06T02:46:36.448Z,30.70
2023-04-06T02:49:06.367Z,30.50
2023-04-06T02:51:35.731Z,32.47
2023-04-06T02:54:03.930Z,28.90
2023-04-06T02:56:32.036Z,30.83
2023-04-06T02:59:00.415Z,31.47
2023-04-06T03:01:28.909Z,26.50
2023-04-06T03:03:57.187Z,31.63
2023-04-06T03:06:27.554Z,26.70
2023-04-06T03:08:55.889Z,29.03
2023-04-06T03:11:24.010Z,30.57
2023-04-06T03:13:52.596Z,32.33
2023-04-06T03:16:20.816Z,27.83
2023-04-06T03:18:49.087Z,31.70
2023-04-06T03:21:17.364Z,30.13
2023-04-06T03:23:46.962Z,32.03
2023-04-06T03:26:15.144Z,30.37
2023-04-06T03:28:43.419Z,28.37
2023-04-06T03:31:11.742Z,39.37
2023-04-06T03:33:39.977Z,36.73
2023-04-06T03:36:09.051Z,35.43
2023-04-06T03:38:38.594Z,31.83
2023-04-06T03:41:09.526Z,31.97
2023-04-06T03:43:37.908Z,33.30
2023-04-06T03:46:06.323Z,32.40
2023-04-06T03:48:34.812Z,35.93
2023-04-06T03:51:03.049Z,34.43
2023-04-06T03:53:31.267Z,31.57
2023-04-06T03:55:59.800Z,36.33
2023-04-06T03:58:29.289Z,36.47
2023-04-06T04:00:57.559Z,34.47
2023-04-06T04:03:28.343Z,39.10
2023-04-06T04:05:57.147Z,36.03
2023-04-06T04:08:26.639Z,38.80
2023-04-06T04:10:54.954Z,34.97
2023-04-06T04:13:23.846Z,44.37
2023-04-06T04:15:53.965Z,34.77
2023-04-06T04:18:22.127Z,34.73
2023-04-06T04:20:50.300Z,37.43
2023-04-06T04:23:18.658Z,37.87
2023-04-06T04:25:47.012Z,35.23
2023-04-06T04:28:15.186Z,40.67
2023-04-06T04:30:43.668Z,37.83
2023-04-06T04:33:13.209Z,34.37
2023-04-06T04:35:41.424Z,36.93
2023-04-06T04:38:09.676Z,38.77
2023-04-06T04:40:37.938Z,35.03
2023-04-06T04:43:06.299Z,44.03
2023-04-06T04:45:34.680Z,37.13
2023-04-06T04:48:02.972Z,36.47
2023-04-06T04:50:32.772Z,39.90
2023-04-06T04:53:01.187Z,40.47
2023-04-06T04:55:30.360Z,37.10
2023-04-06T04:57:58.534Z,39.10
2023-04-06T05:00:26.947Z,41.87
2023-04-06T05:02:55.313Z,43.73
2023-04-06T05:05:23.525Z,40.93
2023-04-06T05:07:53.204Z,40.87
2023-04-06T05:10:21.577Z,40.17
2023-04-06T05:12:49.825Z,40.37
2023-04-06T05:15:18.398Z,45.40
2023-04-06T05:17:46.665Z,40.77
2023-04-06T05:20:15.220Z,35.67
2023-04-06T05:22:43.454Z,38.77
2023-04-06T05:25:13.158Z,37.63
2023-04-06T05:27:41.775Z,36.43
2023-04-06T05:30:10.659Z,36.67
2023-04-06T05:32:39.027Z,37.30
2023-04-06T05:35:07.774Z,40.93
2023-04-06T05:37:36.155Z,45.47
2023-04-06T05:40:04.919Z,38.20
2023-04-06T05:42:40.253Z,40.80
2023-04-06T05:45:09.581Z,33.10
2023-04-06T05:47:37.759Z,33.10
2023-04-06T05:50:07.303Z,39.33
2023-04-06T05:52:35.763Z,31.37
2023-04-06T05:55:04.428Z,37.77
2023-04-06T05:57:32.734Z,39.63
2023-04-06T06:00:02.453Z,35.03
2023-04-06T06:02:33.164Z,36.30
2023-04-06T06:05:01.708Z,37.13
2023-04-06T06:07:30.085Z,38.60
2023-04-06T06:09:59.475Z,41.57
2023-04-06T06:12:27.782Z,38.23
2023-04-06T06:14:56.551Z,40.10
2023-04-06T06:17:26.256Z,39.00
2023-04-06T06:19:54.468Z,37.10
2023-04-06T06:22:22.718Z,29.70
2023-04-06T06:24:51.519Z,29.73
2023-04-06T06:27:19.700Z,30.27
2023-04-06T06:29:47.902Z,33.77
2023-04-06T06:32:16.762Z,35.43
2023-04-06T06:34:46.326Z,31.30
2023-04-06T06:37:14.640Z,31.03
2023-04-06T06:39:42.860Z,29.60
2023-04-06T06:42:11.622Z,31.77
2023-04-06T06:44:41.154Z,35.67
2023-04-06T06:47:09.724Z,36.83
2023-04-06T06:49:37.978Z,38.37
2023-04-06T06:52:07.832Z,42.77
2023-04-06T06:54:36.305Z,50.10
2023-04-06T06:57:04.546Z,40.97
2023-04-06T06:59:32.782Z,44.87
2023-04-06T07:02:01.121Z,38.83
2023-04-06T07:04:30.634Z,41.90
2023-04-06T07:06:59.034Z,40.43
2023-04-06T07:09:28.878Z,44.27
2023-04-06T07:11:57.624Z,46.67
2023-04-06T07:14:26.012Z,44.73
2023-04-06T07:16:54.271Z,44.10
2023-04-06T07:19:22.537Z,40.17
2023-04-06T07:21:51.530Z,48.00
2023-04-06T07:24:19.760Z,37.40
2023-04-06T07:26:49.540Z,39.00
2023-04-06T07:29:19.067Z,40.93
2023-04-06T07:31:47.605Z,36.23
2023-04-06T07:34:15.788Z,43.30
2023-04-06T07:36:44.077Z,37.83
2023-04-06T07:39:12.534Z,35.93
2023-04-06T07:41:40.759Z,31.87
2023-04-06T07:44:10.577Z,31.63
2023-04-06T07:46:39.065Z,30.23
2023-04-06T07:49:07.338Z,26.50
2023-04-06T07:51:37.838Z,25.83
2023-04-06T07:54:06.401Z,26.17
2023-04-06T07:56:34.794Z,23.67
2023-04-06T07:59:04.199Z,23.97
2023-04-06T08:01:33.932Z,23.80
2023-04-06T08:04:03.556Z,18.83
2023-04-06T08:06:31.980Z,19.93
2023-04-06T08:09:00.374Z,20.97
2023-04-06T08:11:29.563Z,17.77
2023-04-06T08:13:58.947Z,18.90
2023-04-06T08:16:28.402Z,22.40
2023-04-06T08:18:57.939Z,21.13
2023-04-06T08:21:26.304Z,25.57
2023-04-06T08:23:54.576Z,22.37
2023-04-06T08:26:22.768Z,23.40
2023-04-06T08:28:50.921Z,23.27
2023-04-06T08:31:19.418Z,21.93
2023-04-06T08:33:47.765Z,20.50
2023-04-06T08:36:21.320Z,26.37
2023-04-06T08:38:50.026Z,17.83
2023-04-06T08:41:18.784Z,19.60
2023-04-06T08:43:50.115Z,23.67
2023-04-06T08:46:19.629Z,18.57
2023-04-06T08:48:50.898Z,24.33
2023-04-06T08:51:21.533Z,22.57
2023-04-06T08:53:51.001Z,22.87
2023-04-06T08:56:19.604Z,24.40
2023-04-06T08:58:51.055Z,22.57
2023-04-06T09:01:22.876Z,21.03
2023-04-06T09:03:53.106Z,23.30
2023-04-06T09:06:23.344Z,24.67
2023-04-06T09:08:51.537Z,23.60
2023-04-06T09:11:19.933Z,30.83
2023-04-06T09:13:49.704Z,27.60
2023-04-06T09:16:18.338Z,24.37
2023-04-06T09:18:47.500Z,21.63
2023-04-06T09:21:18.727Z,25.13
2023-04-06T09:23:49.748Z,22.80
2023-04-06T09:26:22.502Z,24.03
2023-04-06T09:28:52.727Z,24.87
2023-04-06T09:31:25.042Z,22.53
2023-04-06T09:33:54.210Z,22.80
2023-04-06T09:36:31.253Z,26.13
2023-04-06T09:39:03.328Z,20.17
2023-04-06T09:41:32.873Z,25.10
2023-04-06T09:44:08.866Z,21.23
2023-04-06T09:46:55.095Z,20.33
2023-04-06T09:49:29.415Z,25.90
2023-04-06T09:52:01.634Z,24.30
2023-04-06T09:54:32.775Z,24.80
2023-04-06T09:57:08.320Z,22.93
2023-04-06T09:59:43.875Z,28.30
2023-04-06T10:02:28.086Z,27.30
2023-04-06T10:05:02.920Z,26.70
2023-04-06T10:07:32.412Z,27.40
2023-04-06T10:10:04.584Z,26.73
2023-04-06T10:12:32.829Z,29.63
2023-04-06T10:15:01.545Z,27.40
2023-04-06T10:17:29.905Z,22.40
2023-04-06T10:20:05.939Z,27.57
2023-04-06T10:22:41.759Z,22.77
2023-04-06T10:25:12.090Z,27.97
2023-04-06T10:27:40.348Z,27.63
2023-04-06T10:30:09.631Z,31.17
2023-04-06T10:32:39.175Z,30.00
2023-04-06T10:35:08.627Z,26.43
2023-04-06T10:37:50.013Z,27.50
2023-04-06T10:40:25.970Z,27.67
2023-04-06T10:42:55.174Z,26.07
2023-04-06T10:45:25.416Z,28.00
2023-04-06T10:47:55.940Z,24.83
2023-04-06T10:50:26.224Z,30.73
2023-04-06T10:53:04.821Z,27.30
2023-04-06T10:55:34.620Z,29.23
2023-04-06T10:58:02.850Z,25.67
2023-04-06T11:00:43.085Z,29.40
2023-04-06T11:03:18.101Z,32.57
2023-04-06T11:05:48.155Z,25.43
2023-04-06T11:08:26.022Z,33.00
2023-04-06T11:11:06.535Z,26.43
2023-04-06T11:13:43.302Z,25.43
2023-04-06T11:16:16.440Z,29.90
2023-04-06T11:18:58.117Z,28.90
2023-04-06T11:21:37.792Z,29.27
2023-04-06T11:24:11.157Z,26.00
2023-04-06T11:26:42.342Z,23.60
2023-04-06T11:29:10.705Z,24.00
2023-04-06T11:31:43.794Z,20.63
2023-04-06T11:34:13.548Z,21.40
2023-04-06T11:36:45.848Z,23.60
2023-04-06T11:39:14.853Z,26.13
2023-04-06T11:41:49.321Z,22.83
2023-04-06T11:44:17.714Z,22.23
2023-04-06T11:46:54.679Z,23.20
2023-04-06T11:49:23.049Z,19.77
2023-04-06T11:51:52.075Z,18.70
2023-04-06T11:54:31.389Z,19.00
2023-04-06T11:57:01.582Z,23.77
2023-04-06T11:59:30.012Z,19.20
2023-04-06T12:01:58.902Z,19.33
2023-04-06T12:04:27.199Z,21.47
2023-04-06T12:06:55.544Z,24.77
2023-04-06T12:09:24.028Z,21.57
2023-04-06T12:11:52.453Z,19.87
2023-04-06T12:14:22.682Z,20.57
2023-04-06T12:16:51.468Z,23.07
2023-04-06T12:19:19.709Z,24.13
2023-04-06T12:21:48.019Z,25.20
2023-04-06T12:24:16.507Z,20.90
2023-04-06T12:26:45.204Z,20.60
2023-04-06T12:29:14.239Z,22.33
2023-04-06T12:31:45.663Z,18.73
2023-04-06T12:34:14.186Z,21.20
2023-04-06T12:36:42.435Z,22.77
2023-04-06T12:39:10.722Z,22.80
2023-04-06T12:41:41.496Z,26.33
2023-04-06T12:44:09.655Z,24.10
2023-04-06T12:46:37.953Z,22.97
2023-04-06T12:49:07.599Z,25.67
2023-04-06T12:51:36.038Z,20.93
2023-04-06T12:54:04.529Z,29.33
2023-04-06T12:56:33.668Z,25.20
2023-04-06T12:59:02.203Z,23.57
2023-04-06T13:01:31.402Z,28.00
2023-04-06T13:04:00.384Z,28.40
2023-04-06T13:06:30.244Z,24.87
2023-04-06T13:08:58.504Z,28.63
2023-04-06T13:11:28.795Z,27.57
2023-04-06T13:14:00.004Z,24.17
2023-04-06T13:16:28.346Z,25.83
2023-04-06T13:18:56.815Z,29.33
2023-04-06T13:21:25.134Z,28.80
2023-04-06T13:23:54.822Z,30.27
2023-04-06T13:26:23.161Z,26.17
2023-04-06T13:28:51.595Z,26.63
2023-04-06T13:31:19.891Z,26.23
2023-04-06T13:33:48.117Z,24.23
2023-04-06T13:36:18.223Z,24.73
2023-04-06T13:38:47.859Z,26.03
2023-04-06T13:41:23.265Z,25.80
2023-04-06T13:43:52.237Z,25.07
2023-04-06T13:46:21.022Z,26.00
2023-04-06T13:48:49.578Z,25.37
2023-04-06T13:51:17.850Z,26.83
2023-04-06T13:53:46.447Z,25.57
2023-04-06T13:56:15.401Z,27.10
2023-04-06T13:58:45.538Z,26.43
2023-04-06T14:01:16.681Z,28.20
2023-04-06T14:03:48.455Z,31.30
2023-04-06T14:08:48.715Z,31.10
2023-04-06T14:11:17.295Z,32.07
2023-04-06T14:13:47.685Z,36.73
2023-04-06T14:16:16.404Z,36.53
2023-04-06T14:18:44.634Z,32.50
2023-04-06T14:21:12.803Z,35.03
2023-04-06T14:23:41.112Z,36.83
2023-04-06T14:26:10.401Z,34.23
2023-04-06T14:28:40.000Z,35.00
2023-04-06T14:31:16.094Z,37.13
2023-04-06T14:33:44.799Z,37.53
2023-04-06T14:36:13.405Z,39.77
2023-04-06T14:38:41.546Z,37.83
2023-04-06T14:41:11.776Z,39.27
2023-04-06T14:43:39.963Z,38.70
2023-04-06T14:46:09.482Z,36.13
2023-04-06T14:48:39.415Z,39.23
2023-04-06T14:51:08.462Z,34.07
2023-04-06T14:53:36.587Z,33.57
2023-04-06T14:56:04.949Z,36.07
2023-04-06T14:58:33.337Z,34.03
2023-04-06T15:01:02.754Z,31.33
2023-04-06T15:03:32.276Z,33.20
2023-04-06T15:06:02.000Z,31.67
2023-04-06T15:08:30.043Z,37.10
2023-04-06T15:11:01.625Z,31.20
2023-04-06T15:13:30.584Z,32.27
2023-04-06T15:16:00.563Z,32.37
2023-04-06T15:18:30.512Z,33.63
2023-04-06T15:20:58.742Z,36.73
2023-04-06T15:23:30.668Z,30.80
2023-04-06T15:25:59.408Z,30.20
2023-04-06T15:28:27.851Z,28.80
2023-04-06T15:30:58.498Z,29.70
2023-04-06T15:33:27.887Z,29.80
2023-04-06T15:35:56.275Z,28.43
2023-04-06T15:38:24.532Z,36.60
2023-04-06T15:40:54.503Z,29.03
2023-04-06T15:43:22.671Z,27.67
2023-04-06T15:45:50.778Z,33.53
2023-04-06T15:48:19.529Z,25.07
2023-04-06T15:50:47.653Z,30.70
2023-04-06T15:53:16.112Z,26.63
2023-04-06T15:55:44.557Z,28.00
2023-04-06T15:58:14.045Z,24.07
2023-04-06T16:00:42.364Z,28.33
2023-04-06T16:03:10.782Z,26.63
2023-04-06T16:05:48.549Z,25.23
2023-04-06T16:08:27.379Z,29.13
2023-04-06T16:10:55.503Z,32.00
2023-04-06T16:13:24.945Z,28.67
2023-04-06T16:15:54.251Z,25.27
2023-04-06T16:18:22.585Z,20.17
2023-04-06T16:20:54.366Z,22.70
2023-04-06T16:23:22.670Z,25.13
2023-04-06T16:25:51.416Z,27.87
2023-04-06T16:28:19.731Z,32.23
2023-04-06T16:30:49.484Z,29.83
2023-04-06T16:33:19.392Z,30.17
2023-04-06T16:35:48.609Z,26.87
2023-04-06T16:38:18.354Z,29.43
2023-04-06T16:40:46.529Z,25.70
2023-04-06T16:43:15.718Z,23.33
2023-04-06T16:45:44.168Z,22.03
2023-04-06T16:48:14.643Z,18.97
2023-04-06T16:50:43.037Z,22.17
2023-04-06T16:53:11.842Z,20.87
2023-04-06T16:55:40.605Z,23.83
2023-04-06T16:58:08.936Z,22.00
2023-04-06T17:00:38.469Z,28.37
2023-04-06T17:03:07.036Z,18.07
2023-04-06T17:05:36.872Z,18.50
2023-04-06T17:08:05.221Z,18.77
2023-04-06T17:10:37.251Z,16.13
2023-04-06T17:13:09.850Z,24.67
2023-04-06T17:15:38.036Z,26.97
2023-04-06T17:18:06.381Z,24.10
2023-04-06T17:20:36.916Z,28.80
2023-04-06T17:23:05.420Z,26.67
2023-04-06T17:25:33.477Z,28.40
2023-04-06T17:28:01.949Z,28.27
2023-04-06T17:30:30.303Z,27.30
2023-04-06T17:32:58.477Z,25.80
2023-04-06T17:35:27.420Z,21.90
2023-04-06T17:37:56.903Z,30.13
2023-04-06T17:40:24.942Z,25.17
2023-04-06T17:42:53.553Z,23.87
2023-04-06T17:45:21.743Z,38.23
2023-04-06T17:47:49.962Z,21.10
2023-04-06T17:50:18.358Z,12.27
2023-04-06T17:52:47.159Z,19.33
2023-04-06T17:55:16.695Z,7.20
2023-04-06T17:57:46.538Z,9.20
2023-04-06T18:00:16.717Z,6.03
2023-04-06T18:02:45.027Z,5.13
2023-04-06T18:05:13.429Z,5.77
2023-04-06T18:07:41.641Z,5.37
2023-04-06T18:10:11.310Z,8.57
2023-04-06T18:12:41.201Z,6.60
2023-04-06T18:15:09.869Z,6.57
2023-04-06T18:17:38.227Z,10.47
2023-04-06T18:20:07.355Z,8.07
2023-04-06T18:22:36.723Z,13.80
2023-04-06T18:25:05.716Z,14.97
2023-04-06T18:27:34.126Z,12.93
2023-04-06T18:30:04.014Z,15.20
2023-04-06T18:32:32.493Z,13.43
2023-04-06T18:35:00.848Z,20.43
2023-04-06T18:37:29.100Z,16.23
2023-04-06T18:39:58.529Z,19.00
2023-04-06T18:42:26.981Z,18.67
2023-04-06T18:44:55.143Z,16.30
2023-04-06T18:47:24.851Z,14.63
2023-04-06T18:49:53.188Z,12.00
2023-04-06T18:52:21.478Z,14.33
2023-04-06T18:54:52.063Z,17.77
2023-04-06T18:57:20.266Z,15.27
2023-04-06T18:59:48.522Z,18.23
2023-04-06T19:02:16.802Z,16.50
2023-04-06T19:04:46.946Z,32.50
2023-04-06T19:07:15.436Z,43.70
2023-04-06T19:09:43.700Z,26.27
2023-04-06T19:12:12.052Z,13.70
2023-04-06T19:14:40.141Z,16.07
2023-04-06T19:17:08.625Z,18.47
2023-04-06T19:19:37.840Z,13.33
2023-04-06T19:22:07.350Z,13.73
2023-04-06T19:24:35.933Z,14.93
2023-04-06T19:27:06.166Z,22.43
2023-04-06T19:29:34.368Z,15.90
2023-04-06T19:32:03.099Z,16.33
2023-04-06T19:34:31.419Z,12.00
2023-04-06T19:36:59.542Z,12.80
2023-04-06T19:39:31.293Z,9.87
2023-04-06T19:41:59.572Z,8.33
2023-04-06T19:44:27.926Z,6.37
2023-04-06T19:46:58.706Z,6.13
2023-04-06T19:49:28.453Z,8.60
2023-04-06T19:51:56.940Z,9.67
2023-04-06T19:54:25.497Z,8.37
2023-04-06T19:56:55.215Z,5.23
2023-04-06T19:59:23.511Z,3.90
2023-04-06T20:01:52.300Z,14.80
2023-04-06T20:04:23.999Z,21.33
2023-04-06T20:06:53.570Z,19.87
2023-04-06T20:09:22.136Z,14.17
2023-04-06T20:11:50.948Z,16.80
2023-04-06T20:14:20.956Z,14.00
2023-04-06T20:16:50.446Z,30.53
2023-04-06T20:19:19.355Z,33.00
2023-04-06T20:21:48.286Z,23.97
2023-04-06T20:24:16.444Z,21.80
2023-04-06T20:26:44.909Z,20.50
2023-04-06T20:29:13.409Z,21.87
2023-04-06T20:31:42.976Z,34.83
2023-04-06T20:34:11.212Z,26.30
2023-04-06T20:36:40.205Z,31.20
2023-04-06T20:39:08.475Z,29.90
2023-04-06T20:41:36.576Z,36.33
2023-04-06T20:44:05.013Z,19.27
2023-04-06T20:46:33.156Z,28.93
2023-04-06T20:49:04.156Z,27.07
2023-04-06T20:51:32.531Z,26.67
2023-04-06T20:54:01.151Z,28.40
2023-04-06T20:56:29.765Z,33.97
2023-04-06T20:58:58.474Z,34.60
2023-04-06T21:01:27.376Z,24.50
2023-04-06T21:03:55.933Z,33.33
2023-04-06T21:06:27.678Z,28.53
2023-04-06T21:08:55.895Z,30.43
2023-04-06T21:11:24.192Z,30.27
2023-04-06T21:13:52.619Z,25.47
2023-04-06T21:16:21.075Z,31.47
2023-04-06T21:18:49.515Z,28.23
2023-04-06T21:21:17.713Z,24.50
2023-04-06T21:23:47.319Z,30.03
2023-04-06T21:26:15.626Z,31.60
2023-04-06T21:28:43.953Z,32.93
2023-04-06T21:31:12.050Z,29.87
2023-04-06T21:33:40.237Z,29.13
2023-04-06T21:36:09.611Z,32.47
2023-04-06T21:38:37.794Z,33.73
2023-04-06T21:41:07.607Z,24.03
2023-04-06T21:43:35.971Z,23.13
2023-04-06T21:46:04.276Z,25.00
2023-04-06T21:48:32.529Z,30.00
2023-04-06T21:51:00.850Z,30.13
2023-04-06T21:53:29.063Z,30.33
2023-04-06T21:55:57.766Z,27.13
2023-04-06T21:58:27.266Z,33.17
2023-04-06T22:00:55.494Z,25.73
2023-04-06T22:03:23.909Z,31.57
2023-04-06T22:05:52.466Z,30.50
2023-04-06T22:08:32.616Z,36.43
2023-04-06T22:11:07.752Z,26.87
2023-04-06T22:13:37.531Z,37.50
2023-04-06T22:16:06.520Z,32.33
2023-04-06T22:18:37.302Z,29.30
2023-04-06T22:21:07.309Z,27.27
2023-04-06T22:23:42.287Z,26.03
2023-04-06T22:26:11.356Z,25.23
2023-04-06T22:28:42.243Z,26.87
2023-04-06T22:31:10.466Z,28.60
2023-04-06T22:33:38.787Z,26.90
2023-04-06T22:36:07.385Z,18.70
2023-04-06T22:38:35.896Z,17.57
2023-04-06T22:41:05.608Z,18.57
2023-04-06T22:43:34.709Z,15.90
2023-04-06T22:46:04.750Z,14.90
2023-04-06T22:48:32.982Z,21.43
2023-04-06T22:51:01.125Z,14.40
2023-04-06T22:53:29.433Z,16.87
2023-04-06T22:55:57.836Z,22.27
2023-04-06T22:58:26.299Z,17.60
2023-04-06T23:00:54.447Z,18.83
2023-04-06T23:03:24.278Z,21.73
2023-04-06T23:05:52.495Z,17.77
2023-04-06T23:08:20.749Z,24.23
2023-04-06T23:10:48.930Z,23.20
2023-04-06T23:13:17.194Z,20.63
2023-04-06T23:15:45.429Z,23.97
2023-04-06T23:18:13.704Z,21.90
2023-04-06T23:20:43.188Z,22.57
2023-04-06T23:23:11.654Z,23.23
2023-04-06T23:25:40.030Z,19.77
2023-04-06T23:28:08.091Z,20.33
2023-04-06T23:30:36.307Z,24.80
2023-04-06T23:33:05.202Z,24.27
2023-04-06T23:35:33.313Z,22.33
2023-04-06T23:38:02.840Z,17.33
2023-04-06T23:40:30.998Z,18.53
2023-04-06T23:42:59.077Z,19.37
2023-04-06T23:45:27.253Z,22.83
2023-04-06T23:47:55.481Z,21.97
2023-04-06T23:50:23.842Z,19.60
2023-04-06T23:52:52.053Z,15.87
2023-04-06T23:55:21.627Z,16.50
2023-04-06T23:57:49.780Z,17.53
